Time;durP1;ratioP1;P1;durP2;ratioP2;P2;SDS_P1;SDS_P2;PMS_P1;PMS_P2;Temp;Humidity;BMP_temperature;BMP_pressure;BME280_temperature;BME280_humidity;BME280_pressure;Samples;Min_cycle;Max_cycle;Signal;HPM_P1;HPM_P2
2021/09/02 00:01:13;;;;;;;48.70;23.77;;;10.00;99.90;;;;;;5054387;28;20025;-68
2021/09/02 00:03:39;;;;;;;50.30;23.92;;;10.00;99.90;;;;;;5054317;28;20039;-69
2021/09/02 00:06:04;;;;;;;51.22;25.10;;;10.00;99.90;;;;;;5054304;28;20029;-68
2021/09/02 00:08:30;;;;;;;47.47;23.60;;;10.00;99.90;;;;;;5054246;28;20415;-68
2021/09/02 00:10:55;;;;;;;42.83;22.00;;;10.00;99.90;;;;;;5052969;28;20048;-68
2021/09/02 00:13:21;;;;;;;41.25;22.02;;;10.00;99.90;;;;;;5035887;28;20374;-68
2021/09/02 00:15:46;;;;;;;44.10;22.15;;;10.00;99.90;;;;;;5036299;28;20117;-68
2021/09/02 00:18:12;;;;;;;43.42;22.42;;;10.00;99.90;;;;;;5052907;28;20108;-68
2021/09/02 00:20:37;;;;;;;37.47;21.73;;;9.90;99.90;;;;;;5052623;28;20033;-68
2021/09/02 00:23:03;;;;;;;41.70;21.67;;;9.90;99.90;;;;;;5052243;28;20036;-70
2021/09/02 00:25:29;;;;;;;47.05;23.73;;;9.90;99.90;;;;;;5053753;28;20032;-68
2021/09/02 00:27:55;;;;;;;37.00;22.48;;;9.90;99.90;;;;;;5052047;28;20397;-68
2021/09/02 00:30:20;;;;;;;46.63;23.05;;;9.90;99.90;;;;;;5053615;28;20095;-68
2021/09/02 00:32:46;;;;;;;44.65;22.23;;;9.90;99.90;;;;;;5053962;28;20048;-68
2021/09/02 00:35:12;;;;;;;46.22;22.00;;;9.90;99.90;;;;;;5053897;28;20021;-68
2021/09/02 00:37:38;;;;;;;39.40;21.45;;;9.80;99.90;;;;;;5053603;28;20383;-69
2021/09/02 00:40:05;;;;;;;40.33;22.15;;;9.80;99.90;;;;;;5053619;28;20025;-68
2021/09/02 00:42:31;;;;;;;41.78;22.75;;;9.80;99.90;;;;;;5053849;28;20079;-68
2021/09/02 00:44:56;;;;;;;40.92;20.95;;;9.80;99.90;;;;;;5052011;28;20029;-68
2021/09/02 00:47:22;;;;;;;43.97;21.15;;;9.80;99.90;;;;;;5052347;28;20035;-68
2021/09/02 00:49:48;;;;;;;46.35;22.83;;;9.80;99.90;;;;;;5053504;28;20432;-68
2021/09/02 00:52:19;;;;;;;42.28;21.88;;;9.70;99.90;;;;;;5053422;28;20060;-68
2021/09/02 00:54:48;;;;;;;44.92;22.45;;;9.70;99.90;;;;;;5052342;28;20021;-69
2021/09/02 00:57:17;;;;;;;41.42;22.52;;;9.70;99.90;;;;;;5053720;28;20017;-68
2021/09/02 00:59:44;;;;;;;39.22;21.73;;;9.60;99.90;;;;;;5052235;28;20026;-68
2021/09/02 01:02:10;;;;;;;42.80;22.27;;;9.70;99.90;;;;;;5052509;28;20025;-68
2021/09/02 01:04:35;;;;;;;42.35;21.48;;;9.60;99.90;;;;;;5053678;28;20025;-68
2021/09/02 01:07:02;;;;;;;41.13;21.52;;;9.60;99.90;;;;;;5053368;28;20110;-68
2021/09/02 01:09:27;;;;;;;34.65;20.17;;;9.60;99.90;;;;;;5052451;28;20025;-68
2021/09/02 01:11:54;;;;;;;46.33;23.17;;;9.60;99.90;;;;;;5053481;28;20074;-68
2021/09/02 01:14:20;;;;;;;43.22;21.67;;;9.60;99.90;;;;;;5052109;28;20405;-68
2021/09/02 01:16:48;;;;;;;38.47;20.52;;;9.60;99.90;;;;;;5035602;28;20021;-68
2021/09/02 01:19:18;;;;;;;40.88;22.05;;;9.50;99.90;;;;;;5053209;28;20460;-68
2021/09/02 01:21:43;;;;;;;40.67;21.20;;;9.50;99.90;;;;;;5053219;28;20025;-68
2021/09/02 01:24:09;;;;;;;40.28;20.63;;;9.50;99.90;;;;;;5051656;28;20021;-68
2021/09/02 01:26:35;;;;;;;42.80;22.27;;;9.50;99.90;;;;;;5052893;28;20033;-68
2021/09/02 01:29:01;;;;;;;44.50;23.48;;;9.50;99.90;;;;;;5053140;28;20478;-68
2021/09/02 01:31:26;;;;;;;41.55;21.17;;;9.40;99.90;;;;;;5052573;28;20037;-68
2021/09/02 01:33:52;;;;;;;39.05;21.42;;;9.40;99.90;;;;;;5051561;28;20056;-68
2021/09/02 01:36:18;;;;;;;38.63;21.25;;;9.40;99.90;;;;;;5053096;28;20174;-68
2021/09/02 01:38:44;;;;;;;37.28;19.77;;;9.40;99.90;;;;;;5053034;28;20025;-68
2021/09/02 01:41:10;;;;;;;40.03;20.35;;;9.40;99.90;;;;;;5056414;28;20055;-68
2021/09/02 01:43:36;;;;;;;36.20;19.23;;;9.40;99.90;;;;;;5056671;28;20029;-68
2021/09/02 01:46:02;;;;;;;38.85;19.75;;;9.40;99.90;;;;;;5056893;28;20155;-68
2021/09/02 01:48:34;;;;;;;37.10;20.10;;;9.30;99.90;;;;;;5056895;28;20347;-68
2021/09/02 01:50:59;;;;;;;49.95;24.42;;;9.30;99.90;;;;;;5056735;28;20020;-68
2021/09/02 01:53:25;;;;;;;45.60;21.83;;;9.30;99.90;;;;;;5056772;28;20373;-68
2021/09/02 01:55:51;;;;;;;34.03;20.10;;;9.30;99.90;;;;;;5056392;28;20021;-68
2021/09/02 01:58:17;;;;;;;33.08;18.58;;;9.30;99.90;;;;;;5055489;28;20447;-68
2021/09/02 02:00:43;;;;;;;30.90;17.27;;;9.30;99.90;;;;;;5055646;28;20029;-68
2021/09/02 02:03:08;;;;;;;36.45;19.88;;;9.30;99.90;;;;;;5056293;28;20033;-68
2021/09/02 02:05:34;;;;;;;37.50;20.45;;;9.30;99.90;;;;;;5056541;28;20025;-68
2021/09/02 02:08:01;;;;;;;40.85;20.73;;;9.20;99.90;;;;;;5054745;28;20033;-68
2021/09/02 02:10:27;;;;;;;37.22;20.35;;;9.20;99.90;;;;;;5056091;28;20056;-68
2021/09/02 02:12:55;;;;;;;37.00;17.80;;;9.20;99.90;;;;;;5056375;28;20466;-68
2021/09/02 02:15:21;;;;;;;42.20;21.73;;;9.20;99.90;;;;;;5054895;28;20040;-68
2021/09/02 02:17:46;;;;;;;49.75;23.00;;;9.20;99.90;;;;;;5054862;28;20033;-68
2021/09/02 02:20:12;;;;;;;41.50;21.30;;;9.20;99.90;;;;;;5054801;28;20470;-68
2021/09/02 02:22:38;;;;;;;37.55;20.67;;;9.20;99.90;;;;;;5056188;28;20033;-68
2021/09/02 02:25:06;;;;;;;32.67;19.45;;;9.20;99.90;;;;;;5055864;28;20040;-68
2021/09/02 02:27:32;;;;;;;41.95;19.55;;;9.20;99.90;;;;;;5056088;28;20057;-68
2021/09/02 02:29:59;;;;;;;32.92;18.13;;;9.10;99.90;;;;;;5055199;28;20122;-68
2021/09/02 02:32:24;;;;;;;37.95;18.77;;;9.20;99.90;;;;;;5055942;28;20033;-68
2021/09/02 02:34:50;;;;;;;32.55;17.55;;;9.10;99.90;;;;;;5054500;28;20060;-68
2021/09/02 02:37:16;;;;;;;35.10;18.40;;;9.10;99.90;;;;;;5055918;28;20029;-69
2021/09/02 02:39:41;;;;;;;31.63;17.55;;;9.10;99.90;;;;;;5054850;28;20394;-68
2021/09/02 02:42:08;;;;;;;28.35;17.05;;;9.10;99.90;;;;;;5055833;28;20044;-68
2021/09/02 02:44:34;;;;;;;38.25;19.70;;;9.10;99.90;;;;;;5055513;28;20025;-68
2021/09/02 02:47:00;;;;;;;34.97;18.25;;;9.00;99.90;;;;;;5055751;28;20417;-68
2021/09/02 02:49:26;;;;;;;32.25;17.85;;;9.00;99.90;;;;;;5054241;28;20029;-68
2021/09/02 02:51:52;;;;;;;33.40;17.70;;;9.00;99.90;;;;;;5055580;28;20502;-68
2021/09/02 02:54:17;;;;;;;34.65;17.60;;;9.00;99.90;;;;;;5055621;28;20024;-68
2021/09/02 02:56:43;;;;;;;32.75;17.73;;;9.00;99.90;;;;;;5055547;28;20481;-68
2021/09/02 02:59:09;;;;;;;35.90;18.00;;;9.00;99.90;;;;;;5054908;28;20024;-68
2021/09/02 03:01:34;;;;;;;30.45;17.13;;;9.00;99.90;;;;;;5055182;28;20033;-68
2021/09/02 03:04:00;;;;;;;33.50;17.58;;;8.90;99.90;;;;;;5053588;28;20029;-68
2021/09/02 03:06:25;;;;;;;33.65;18.35;;;8.90;99.90;;;;;;5053940;28;20025;-68
2021/09/02 03:08:51;;;;;;;34.00;17.63;;;8.90;99.90;;;;;;5055280;28;20025;-68
2021/09/02 03:11:16;;;;;;;36.50;17.42;;;8.90;99.90;;;;;;5054038;28;20089;-68
2021/09/02 03:13:42;;;;;;;31.90;17.23;;;8.90;99.90;;;;;;5055209;28;20043;-68
2021/09/02 03:16:08;;;;;;;32.00;16.23;;;8.90;99.90;;;;;;5054001;28;20029;-68
2021/09/02 03:18:34;;;;;;;31.65;16.85;;;8.90;99.90;;;;;;5055112;28;20032;-68
2021/09/02 03:20:59;;;;;;;28.27;16.25;;;8.90;99.90;;;;;;5053917;28;20025;-68
2021/09/02 03:23:31;;;;;;;33.47;16.63;;;8.80;99.90;;;;;;5055047;28;20025;-68
2021/09/02 03:25:57;;;;;;;28.50;15.52;;;8.80;99.90;;;;;;5053194;28;20021;-68
2021/09/02 03:28:22;;;;;;;27.63;15.65;;;8.80;99.90;;;;;;5036593;28;20032;-68
2021/09/02 03:30:48;;;;;;;27.20;15.73;;;8.80;99.90;;;;;;5054402;28;20132;-68
2021/09/02 03:33:14;;;;;;;26.80;15.90;;;8.80;99.90;;;;;;5053414;28;20536;-68
2021/09/02 03:35:39;;;;;;;26.60;15.32;;;8.70;99.90;;;;;;5052997;28;20068;-68
2021/09/02 03:38:06;;;;;;;28.33;15.85;;;8.70;99.90;;;;;;5054738;28;20029;-68
2021/09/02 03:40:32;;;;;;;41.97;19.23;;;8.70;99.90;;;;;;5054462;28;20067;-68
2021/09/02 03:42:57;;;;;;;38.35;18.75;;;8.70;99.90;;;;;;5054719;28;20021;-68
2021/09/02 03:45:23;;;;;;;33.08;18.15;;;8.70;99.90;;;;;;5054353;28;20028;-68
2021/09/02 03:47:50;;;;;;;33.67;18.35;;;8.70;99.90;;;;;;5052788;28;20028;-68
2021/09/02 03:50:17;;;;;;;33.05;17.05;;;8.70;99.90;;;;;;5054538;28;20021;-68
2021/09/02 03:52:42;;;;;;;28.60;15.70;;;8.70;99.90;;;;;;5053008;28;20050;-68
2021/09/02 03:55:09;;;;;;;29.20;16.00;;;8.70;99.90;;;;;;5054440;28;20107;-68
2021/09/02 03:57:34;;;;;;;31.98;16.35;;;8.60;99.90;;;;;;5054448;28;20021;-68
2021/09/02 04:00:00;;;;;;;36.85;17.42;;;8.60;99.90;;;;;;5054382;28;20497;-68
2021/09/02 04:02:25;;;;;;;36.30;17.85;;;8.60;99.90;;;;;;5052500;28;20032;-68
2021/09/02 04:04:51;;;;;;;31.92;16.08;;;8.60;99.90;;;;;;5054302;28;20028;-68
2021/09/02 04:07:16;;;;;;;30.13;15.88;;;8.60;99.90;;;;;;5054002;28;20033;-68
2021/09/02 04:09:42;;;;;;;27.42;15.10;;;8.60;99.90;;;;;;5054248;28;20025;-68
2021/09/02 04:12:08;;;;;;;31.50;16.98;;;8.60;99.90;;;;;;5053888;28;20058;-68
2021/09/02 04:14:33;;;;;;;32.88;17.92;;;8.50;99.90;;;;;;5053865;28;20025;-68
2021/09/02 04:16:59;;;;;;;30.05;16.67;;;8.50;99.90;;;;;;5054139;28;20075;-68
2021/09/02 04:19:25;;;;;;;30.70;16.63;;;8.50;99.90;;;;;;5052305;28;20024;-68
2021/09/02 04:21:51;;;;;;;28.77;16.30;;;8.50;99.90;;;;;;5054004;28;20399;-68
2021/09/02 04:24:16;;;;;;;33.33;16.50;;;8.60;99.90;;;;;;5052579;28;20064;-68
2021/09/02 04:26:42;;;;;;;31.25;16.55;;;8.50;99.90;;;;;;5054028;28;20025;-68
2021/09/02 04:29:08;;;;;;;32.10;16.83;;;8.50;99.90;;;;;;5053719;28;20032;-68
2021/09/02 04:31:33;;;;;;;28.63;15.73;;;8.50;99.90;;;;;;5053324;28;20382;-68
2021/09/02 04:33:59;;;;;;;32.50;16.33;;;8.50;99.90;;;;;;5052116;28;20386;-68
2021/09/02 04:36:25;;;;;;;36.40;17.02;;;8.50;99.90;;;;;;5035512;28;20017;-68
2021/09/02 04:38:50;;;;;;;28.15;15.38;;;8.40;99.90;;;;;;5052471;28;20397;-68
2021/09/02 04:41:16;;;;;;;29.15;15.27;;;8.40;99.90;;;;;;5053586;28;20032;-68
2021/09/02 04:43:41;;;;;;;30.35;15.98;;;8.40;99.90;;;;;;5053874;28;20033;-68
2021/09/02 04:46:07;;;;;;;31.08;15.18;;;8.50;99.90;;;;;;5036313;28;20070;-68
2021/09/02 04:48:33;;;;;;;34.30;16.75;;;8.50;99.90;;;;;;5053552;28;20074;-68
2021/09/02 04:50:58;;;;;;;35.72;18.20;;;8.50;99.90;;;;;;5052270;28;20048;-68
2021/09/02 04:53:24;;;;;;;41.33;19.90;;;8.50;99.90;;;;;;5052542;28;20021;-68
2021/09/02 04:55:49;;;;;;;35.80;17.90;;;8.50;99.90;;;;;;5053717;28;20100;-68
2021/09/02 04:58:16;;;;;;;38.45;19.15;;;8.50;99.90;;;;;;5052280;28;20029;-68
2021/09/02 05:00:42;;;;;;;35.15;18.75;;;8.60;99.90;;;;;;5051924;28;20028;-68
2021/09/02 05:03:08;;;;;;;38.90;18.35;;;8.60;99.90;;;;;;5053385;28;20021;-68
2021/09/02 05:05:34;;;;;;;32.35;16.60;;;8.70;99.90;;;;;;5053130;28;20036;-68
2021/09/02 05:08:01;;;;;;;31.20;16.95;;;8.70;99.90;;;;;;5053616;28;20017;-68
2021/09/02 05:10:27;;;;;;;32.58;15.70;;;8.80;99.90;;;;;;5053270;28;20043;-68
2021/09/02 05:12:52;;;;;;;30.05;16.55;;;8.90;99.90;;;;;;5054083;28;20378;-68
2021/09/02 05:15:18;;;;;;;33.67;17.00;;;9.00;99.90;;;;;;5057452;28;20024;-68
2021/09/02 05:17:45;;;;;;;34.35;15.95;;;9.10;99.90;;;;;;5055974;28;20033;-68
2021/09/02 05:20:11;;;;;;;28.13;15.05;;;9.10;99.90;;;;;;5057109;28;20044;-68
2021/09/02 05:22:37;;;;;;;26.35;15.38;;;9.10;99.90;;;;;;5057349;28;20021;-68
2021/09/02 05:25:03;;;;;;;30.55;16.80;;;9.20;99.90;;;;;;5057260;28;20373;-68
2021/09/02 05:27:29;;;;;;;23.58;15.57;;;9.40;99.90;;;;;;5039311;28;20025;-68
2021/09/02 05:29:54;;;;;;;28.70;15.82;;;9.60;99.90;;;;;;5056964;28;20029;-69
2021/09/02 05:32:20;;;;;;;25.60;15.60;;;9.80;99.90;;;;;;5057094;28;20417;-68
2021/09/02 05:34:45;;;;;;;24.90;15.75;;;9.90;99.90;;;;;;5057163;28;20375;-68
2021/09/02 05:37:11;;;;;;;27.50;15.98;;;10.00;99.90;;;;;;5056798;28;20029;-68
2021/09/02 05:39:37;;;;;;;31.30;16.33;;;10.10;99.90;;;;;;5056763;28;20044;-68
2021/09/02 05:42:03;;;;;;;27.45;15.20;;;10.30;99.90;;;;;;5056431;28;20568;-68
2021/09/02 05:44:28;;;;;;;31.90;16.88;;;10.40;99.90;;;;;;5055116;28;20025;-68
2021/09/02 05:46:55;;;;;;;22.48;15.48;;;10.60;99.90;;;;;;5039164;28;20036;-69
2021/09/02 05:49:21;;;;;;;24.15;14.20;;;10.90;99.90;;;;;;5056811;28;20017;-68
2021/09/02 05:51:46;;;;;;;21.48;13.68;;;11.20;99.90;;;;;;5056700;28;20374;-69
2021/09/02 05:54:12;;;;;;;20.55;13.35;;;11.80;99.90;;;;;;5056687;28;20459;-69
2021/09/02 05:56:37;;;;;;;20.90;12.52;;;12.30;99.90;;;;;;5054919;28;20040;-69
2021/09/02 05:59:03;;;;;;;17.02;11.55;;;12.50;99.90;;;;;;5056664;28;20053;-69
2021/09/02 06:01:29;;;;;;;20.00;12.00;;;12.50;99.90;;;;;;5056319;28;20035;-69
2021/09/02 06:03:54;;;;;;;21.98;12.02;;;12.40;99.90;;;;;;5053603;28;20020;-69
2021/09/02 06:06:20;;;;;;;22.15;13.43;;;12.30;99.90;;;;;;5054179;28;20037;-69
2021/09/02 06:08:45;;;;;;;23.50;12.82;;;12.60;99.90;;;;;;5052969;28;20029;-69
2021/09/02 06:11:11;;;;;;;21.35;13.50;;;12.70;99.90;;;;;;5055599;28;20033;-70
2021/09/02 06:13:36;;;;;;;31.67;17.45;;;13.00;99.90;;;;;;5054435;28;20465;-69
2021/09/02 06:16:03;;;;;;;31.45;17.08;;;13.30;99.90;;;;;;5055660;28;20466;-69
2021/09/02 06:18:29;;;;;;;24.45;15.85;;;14.00;99.90;;;;;;5055016;28;20475;-70
2021/09/02 06:20:55;;;;;;;23.27;15.15;;;14.30;99.90;;;;;;5055136;28;20029;-70
2021/09/02 06:23:20;;;;;;;26.42;14.90;;;14.30;99.90;;;;;;5053140;28;20036;-70
2021/09/02 06:25:46;;;;;;;47.05;15.70;;;14.20;99.90;;;;;;5055001;28;20025;-69
2021/09/02 06:28:12;;;;;;;23.10;14.13;;;13.70;99.90;;;;;;5055796;28;20025;-70
2021/09/02 06:30:38;;;;;;;22.05;14.40;;;13.70;99.90;;;;;;5054670;28;20058;-70
2021/09/02 06:33:04;;;;;;;26.45;16.70;;;13.50;99.90;;;;;;5054184;28;20027;-69
2021/09/02 06:35:30;;;;;;;26.17;16.05;;;13.50;99.90;;;;;;5055396;28;20096;-70
2021/09/02 06:37:56;;;;;;;25.38;15.10;;;13.70;99.90;;;;;;5054291;28;20151;-70
2021/09/02 06:40:21;;;;;;;22.23;15.77;;;13.90;99.90;;;;;;5055664;28;20017;-69
2021/09/02 06:42:47;;;;;;;19.60;14.25;;;15.10;99.90;;;;;;5054979;28;20051;-70
2021/09/02 06:45:12;;;;;;;21.35;15.07;;;16.30;99.90;;;;;;5053467;28;20060;-70
2021/09/02 06:47:39;;;;;;;19.38;14.13;;;17.00;99.90;;;;;;5055612;28;20037;-70
2021/09/02 06:50:06;;;;;;;20.67;14.05;;;17.10;99.90;;;;;;5054859;28;20049;-70
2021/09/02 06:52:32;;;;;;;21.10;15.65;;;17.70;99.90;;;;;;5055266;28;20098;-68
2021/09/02 06:54:58;;;;;;;18.05;13.48;;;18.30;99.90;;;;;;5054891;28;20413;-69
2021/09/02 06:57:24;;;;;;;16.70;12.52;;;18.80;99.90;;;;;;5054490;28;20029;-69
2021/09/02 06:59:49;;;;;;;17.63;12.60;;;18.90;99.90;;;;;;5050186;28;20033;-69
2021/09/02 07:02:15;;;;;;;15.73;13.35;;;18.90;99.90;;;;;;5053658;28;20071;-69
2021/09/02 07:04:41;;;;;;;19.65;14.70;;;19.10;99.90;;;;;;5044003;28;20028;-69
2021/09/02 07:07:06;;;;;;;18.05;13.88;;;20.00;99.90;;;;;;5054245;28;20354;-69
2021/09/02 07:09:32;;;;;;;16.15;12.90;;;20.10;99.90;;;;;;5052582;28;20039;-69
2021/09/02 07:11:58;;;;;;;17.52;13.82;;;20.20;99.90;;;;;;5053666;28;20064;-69
2021/09/02 07:14:24;;;;;;;15.15;13.05;;;21.60;99.90;;;;;;5053442;28;20088;-69
2021/09/02 07:16:50;;;;;;;17.48;13.98;;;21.30;99.90;;;;;;5053285;28;20020;-69
2021/09/02 07:19:15;;;;;;;20.10;15.77;;;20.70;99.90;;;;;;5050699;28;20104;-69
2021/09/02 07:21:41;;;;;;;22.17;17.23;;;21.40;99.90;;;;;;5054000;28;20029;-69
2021/09/02 07:24:07;;;;;;;23.15;18.10;;;21.30;99.90;;;;;;5054264;28;20087;-68
2021/09/02 07:26:32;;;;;;;20.20;16.88;;;21.30;99.90;;;;;;5036033;28;20037;-69
2021/09/02 07:28:58;;;;;;;23.83;16.92;;;21.30;99.90;;;;;;5053330;28;20024;-69
2021/09/02 07:31:23;;;;;;;19.17;14.32;;;21.10;99.90;;;;;;5053220;28;20087;-68
2021/09/02 07:33:49;;;;;;;18.77;15.52;;;21.90;99.90;;;;;;5052386;28;20087;-69
2021/09/02 07:36:14;;;;;;;19.60;15.55;;;22.30;99.90;;;;;;5053656;28;20027;-69
2021/09/02 07:38:40;;;;;;;24.15;18.85;;;21.80;99.90;;;;;;5052622;28;20021;-69
2021/09/02 07:41:05;;;;;;;21.63;18.80;;;22.50;99.90;;;;;;5053944;28;20474;-69
2021/09/02 07:43:31;;;;;;;22.40;19.67;;;22.90;99.90;;;;;;5053552;28;20079;-69
2021/09/02 07:45:57;;;;;;;28.48;20.95;;;23.10;99.90;;;;;;5054019;28;20025;-69
2021/09/02 07:48:23;;;;;;;28.45;22.60;;;22.50;99.90;;;;;;5053569;28;20397;-69
2021/09/02 07:50:48;;;;;;;33.13;23.88;;;21.80;99.90;;;;;;5053211;28;20044;-68
2021/09/02 07:53:14;;;;;;;32.33;22.98;;;19.90;99.90;;;;;;5052231;28;20078;-69
2021/09/02 07:55:40;;;;;;;38.28;26.55;;;19.30;99.90;;;;;;5052172;28;20017;-69
2021/09/02 07:58:05;;;;;;;44.15;27.70;;;18.40;99.90;;;;;;5052275;28;20100;-69
2021/09/02 08:00:31;;;;;;;40.03;26.98;;;17.90;99.90;;;;;;5052850;28;20443;-69
2021/09/02 08:02:57;;;;;;;43.30;28.25;;;17.50;99.90;;;;;;5053082;28;20025;-69
2021/09/02 08:05:22;;;;;;;43.75;28.75;;;17.40;99.90;;;;;;5053046;28;20115;-69
2021/09/02 08:07:50;;;;;;;44.65;29.58;;;17.00;99.90;;;;;;5053174;28;20021;-69
2021/09/02 08:10:17;;;;;;;47.47;28.95;;;17.00;99.90;;;;;;5053594;28;20021;-69
2021/09/02 08:12:43;;;;;;;53.15;31.10;;;17.00;99.90;;;;;;5053039;28;20094;-69
2021/09/02 08:15:09;;;;;;;56.72;32.58;;;17.00;99.90;;;;;;5051655;28;20470;-69
2021/09/02 08:17:35;;;;;;;62.22;34.05;;;16.90;99.90;;;;;;5052852;28;20028;-68
2021/09/02 08:20:00;;;;;;;58.67;32.85;;;16.60;99.90;;;;;;5052982;28;20390;-68
2021/09/02 08:22:26;;;;;;;57.78;32.42;;;16.60;99.90;;;;;;5052281;28;20040;-68
2021/09/02 08:24:51;;;;;;;56.58;33.05;;;16.60;99.90;;;;;;5052840;28;20499;-68
2021/09/02 08:27:17;;;;;;;58.03;33.83;;;16.50;99.90;;;;;;5052913;28;20056;-68
2021/09/02 08:29:43;;;;;;;59.40;34.20;;;16.40;99.90;;;;;;5053865;28;20021;-68
2021/09/02 08:32:09;;;;;;;59.92;33.53;;;16.50;99.90;;;;;;5052938;28;20405;-68
2021/09/02 08:34:34;;;;;;;58.13;33.28;;;16.60;99.90;;;;;;5053145;28;20021;-68
2021/09/02 08:37:00;;;;;;;59.08;31.58;;;16.60;99.90;;;;;;5053458;28;20454;-68
2021/09/02 08:39:25;;;;;;;61.28;32.85;;;16.50;99.90;;;;;;5052441;28;20028;-67
2021/09/02 08:41:51;;;;;;;55.85;32.15;;;16.40;99.90;;;;;;5052452;28;20028;-68
2021/09/02 08:44:17;;;;;;;58.08;31.92;;;16.40;99.90;;;;;;5051906;28;20027;-68
2021/09/02 08:46:42;;;;;;;53.55;30.48;;;16.40;99.90;;;;;;5052414;28;20036;-68
2021/09/02 08:49:11;;;;;;;56.47;30.08;;;16.60;99.90;;;;;;5056827;28;20402;-69
2021/09/02 08:51:37;;;;;;;54.63;30.77;;;16.70;99.90;;;;;;5056483;28;20025;-70
2021/09/02 08:54:04;;;;;;;51.75;29.52;;;17.00;99.90;;;;;;5057127;28;20481;-69
2021/09/02 08:56:30;;;;;;;50.20;28.75;;;17.20;99.90;;;;;;5056791;28;20019;-69
2021/09/02 08:58:56;;;;;;;47.28;28.60;;;17.30;99.90;;;;;;5042793;28;20100;-69
2021/09/02 09:01:22;;;;;;;48.00;28.23;;;17.30;99.90;;;;;;5056376;28;20075;-69
2021/09/02 09:03:50;;;;;;;50.65;28.73;;;17.70;99.90;;;;;;5056201;28;20037;-69
2021/09/02 09:06:26;;;;;;;39.45;25.80;;;18.20;99.90;;;;;;5056787;28;20063;-69
2021/09/02 09:08:52;;;;;;;38.10;25.92;;;18.50;99.90;;;;;;5055692;28;20017;-69
2021/09/02 09:11:25;;;;;;;46.63;25.08;;;19.20;99.90;;;;;;5056127;28;20506;-69
2021/09/02 09:14:11;;;;;;;36.22;25.35;;;19.70;99.90;;;;;;5055497;28;20029;-69
2021/09/02 09:16:58;;;;;;;37.35;24.85;;;19.90;99.90;;;;;;5056400;28;20811;-69
2021/09/02 09:19:52;;;;;;;39.75;26.00;;;19.70;99.90;;;;;;5056372;28;20029;-69
2021/09/02 09:22:20;;;;;;;37.58;24.45;;;19.20;99.90;;;;;;5055058;28;20032;-68
2021/09/02 09:24:56;;;;;;;44.08;25.60;;;18.70;99.90;;;;;;5055820;28;20389;-68
2021/09/02 09:27:33;;;;;;;39.63;24.95;;;18.80;99.90;;;;;;5056636;28;20082;-68
2021/09/02 09:32:55;;;;;;;38.20;25.08;;;19.70;99.90;;;;;;5090965;28;20888;-68
2021/09/02 09:35:30;;;;;;;38.50;24.20;;;21.40;99.90;;;;;;5090510;28;20028;-69
2021/09/02 09:38:13;;;;;;;39.85;25.50;;;21.70;99.90;;;;;;5090374;28;20031;-69
2021/09/02 09:40:43;;;;;;;38.53;23.98;;;21.40;99.90;;;;;;5087471;28;20024;-70
2021/09/02 09:43:13;;;;;;;36.88;23.35;;;21.90;99.90;;;;;;5089063;28;20466;-71
2021/09/02 09:45:48;;;;;;;31.00;21.45;;;22.40;99.90;;;;;;5083467;28;20024;-67
2021/09/02 09:48:31;;;;;;;34.55;22.40;;;23.50;99.90;;;;;;5090418;28;20063;-70
2021/09/02 09:51:15;;;;;;;32.78;20.05;;;23.20;99.90;;;;;;5090451;28;20020;-71
2021/09/02 09:53:45;;;;;;;34.58;22.48;;;24.00;99.90;;;;;;5089364;28;20024;-70
2021/09/02 09:56:10;;;;;;;31.98;22.08;;;24.40;99.90;;;;;;5089811;28;20028;-70
2021/09/02 09:58:36;;;;;;;33.42;22.77;;;24.70;99.90;;;;;;5089810;28;20024;-70
2021/09/02 10:01:04;;;;;;;31.02;21.55;;;23.90;99.90;;;;;;5088829;28;20489;-70
2021/09/02 10:03:31;;;;;;;29.95;22.52;;;23.60;99.90;;;;;;5090012;28;20059;-69
2021/09/02 10:06:03;;;;;;;35.53;23.08;;;22.80;99.90;;;;;;5088746;28;20059;-70
2021/09/02 10:08:33;;;;;;;36.37;22.80;;;22.00;99.90;;;;;;5089209;28;20538;-70
2021/09/02 10:11:00;;;;;;;34.17;25.55;;;22.30;99.90;;;;;;5089236;28;20028;-70
2021/09/02 10:13:26;;;;;;;39.17;25.73;;;23.00;99.90;;;;;;5089180;28;20458;-70
2021/09/02 10:15:52;;;;;;;36.08;25.77;;;23.00;99.90;;;;;;5090338;28;20109;-70
2021/09/02 10:18:18;;;;;;;38.05;25.83;;;23.30;99.90;;;;;;5089817;28;20060;-70
2021/09/02 10:20:44;;;;;;;38.90;26.65;;;23.50;99.90;;;;;;5089711;28;20020;-70
2021/09/02 10:23:11;;;;;;;37.13;25.15;;;23.90;99.90;;;;;;5089371;28;20032;-70
2021/09/02 10:25:38;;;;;;;36.25;25.50;;;23.70;99.90;;;;;;5089456;28;20033;-70
2021/09/02 10:28:10;;;;;;;34.85;23.88;;;23.90;99.90;;;;;;5088298;28;20040;-70
2021/09/02 10:30:53;;;;;;;37.10;23.37;;;23.40;99.90;;;;;;5089295;28;20020;-70
2021/09/02 10:33:32;;;;;;;31.10;23.38;;;23.30;99.90;;;;;;5082502;28;20331;-68
2021/09/02 10:35:58;;;;;;;35.03;24.23;;;23.50;99.90;;;;;;5089167;28;20027;-69
2021/09/02 10:38:45;;;;;;;35.80;25.83;;;23.40;99.90;;;;;;5089451;28;20043;-69
2021/09/02 10:41:12;;;;;;;36.22;25.45;;;23.50;99.90;;;;;;5089293;28;20036;-69
2021/09/02 10:46:30;;;;;;;52.75;36.42;;;23.50;99.90;;;;;;5111413;27;20107;-68
2021/09/02 10:49:17;;;;;;;49.13;37.72;;;24.10;99.90;;;;;;5110524;28;20527;-68
2021/09/02 10:51:45;;;;;;;54.58;42.08;;;23.80;99.90;;;;;;5111033;28;20115;-67
2021/09/02 10:54:13;;;;;;;52.13;38.70;;;22.80;99.90;;;;;;5111015;28;20019;-68
2021/09/02 10:57:01;;;;;;;46.58;36.97;;;22.60;99.90;;;;;;5110673;28;20035;-69
2021/09/02 10:59:50;;;;;;;48.47;36.15;;;22.50;99.90;;;;;;5109343;28;20028;-69
2021/09/02 11:04:59;;;;;;;34.65;28.95;;;22.80;99.90;;;;;;5091403;27;20156;-69
2021/09/02 11:07:44;;;;;;;33.70;25.23;;;22.80;99.90;;;;;;5090977;28;20445;-69
2021/09/02 11:10:15;;;;;;;39.40;29.60;;;22.50;99.90;;;;;;5069222;28;20104;-69
2021/09/02 11:12:40;;;;;;;37.72;28.88;;;22.50;99.90;;;;;;5086144;28;20031;-69
2021/09/02 11:15:08;;;;;;;37.00;29.65;;;22.40;99.90;;;;;;5090667;28;20020;-69
2021/09/02 11:17:34;;;;;;;33.70;29.02;;;22.90;99.90;;;;;;5089000;28;20028;-68
2021/09/02 11:20:00;;;;;;;28.23;23.80;;;22.90;99.90;;;;;;5090119;28;20055;-68
2021/09/02 11:22:25;;;;;;;28.38;19.70;;;22.60;99.90;;;;;;5089626;28;20024;-68
2021/09/02 11:24:52;;;;;;;26.42;18.58;;;22.50;99.90;;;;;;5089685;28;20066;-67
2021/09/02 11:27:30;;;;;;;31.10;21.75;;;22.00;99.90;;;;;;5089360;28;20028;-70
2021/09/02 11:30:16;;;;;;;33.53;24.13;;;22.00;99.90;;;;;;5090003;28;20021;-71
2021/09/02 11:32:43;;;;;;;30.35;24.58;;;21.90;99.90;;;;;;5089962;28;20111;-70
2021/09/02 11:35:09;;;;;;;30.95;25.50;;;21.90;99.90;;;;;;5089516;28;20089;-71
2021/09/02 11:37:38;;;;;;;28.92;23.10;;;22.30;99.90;;;;;;5088530;28;20024;-71
2021/09/02 11:40:04;;;;;;;27.65;21.60;;;22.70;99.90;;;;;;5089938;28;20047;-71
2021/09/02 11:42:32;;;;;;;27.55;20.67;;;22.50;99.90;;;;;;5089382;28;20494;-70
2021/09/02 11:45:00;;;;;;;24.60;18.60;;;22.30;99.90;;;;;;5089748;28;20052;-71
2021/09/02 11:47:33;;;;;;;25.38;16.85;;;22.40;99.90;;;;;;5089615;28;20039;-70
2021/09/02 11:50:00;;;;;;;25.75;18.63;;;22.60;99.90;;;;;;5088865;28;20028;-68
2021/09/02 11:52:35;;;;;;;27.77;21.52;;;22.50;99.90;;;;;;5088895;28;20025;-68
2021/09/02 11:55:01;;;;;;;26.77;19.23;;;22.30;99.90;;;;;;5089518;28;20466;-68
2021/09/02 11:57:26;;;;;;;28.48;18.00;;;22.10;99.90;;;;;;5089376;28;20029;-68
2021/09/02 11:59:52;;;;;;;25.05;16.42;;;22.30;99.90;;;;;;5088964;28;20064;-68
2021/09/02 12:02:18;;;;;;;23.10;16.42;;;22.40;99.90;;;;;;5089269;28;20095;-68
2021/09/02 12:04:50;;;;;;;18.58;13.18;;;22.30;99.90;;;;;;5101296;28;20492;-68
2021/09/02 12:07:16;;;;;;;18.05;13.38;;;22.50;99.90;;;;;;5108951;28;20024;-68
2021/09/02 12:09:44;;;;;;;19.45;13.32;;;22.60;99.90;;;;;;5109756;28;20342;-68
2021/09/02 12:12:09;;;;;;;22.77;13.13;;;22.30;99.90;;;;;;5109299;28;20020;-68
2021/09/02 12:14:42;;;;;;;22.33;14.18;;;22.30;99.90;;;;;;5105359;28;20543;-69
2021/09/02 12:17:10;;;;;;;19.20;13.60;;;22.30;99.90;;;;;;5096159;28;20380;-68
2021/09/02 12:19:54;;;;;;;20.00;13.63;;;22.60;99.90;;;;;;5096206;28;20031;-68
2021/09/02 12:22:22;;;;;;;20.10;14.02;;;22.70;99.90;;;;;;5095951;28;20034;-68
2021/09/02 12:24:47;;;;;;;27.27;16.90;;;23.20;99.90;;;;;;5096175;28;20378;-68
2021/09/02 12:27:13;;;;;;;26.05;16.77;;;23.20;99.90;;;;;;5095217;28;20035;-68
2021/09/02 12:29:49;;;;;;;21.48;14.65;;;23.00;99.90;;;;;;5101852;28;20031;-68
2021/09/02 12:32:18;;;;;;;19.90;12.32;;;22.60;99.90;;;;;;5089707;28;20361;-68
2021/09/02 12:34:44;;;;;;;19.77;12.52;;;22.80;99.90;;;;;;5074959;28;20084;-68
2021/09/02 12:37:13;;;;;;;20.75;12.40;;;22.80;99.90;;;;;;5077852;28;20390;-68
2021/09/02 12:39:56;;;;;;;22.35;12.60;;;22.70;99.90;;;;;;5095704;28;20027;-68